createdAt,value
2024-01-11T00:01:52.761Z,78.57
2024-01-11T00:04:20.963Z,79.11
2024-01-11T00:06:49.271Z,79.03
2024-01-11T00:09:17.543Z,78.58
2024-01-11T00:11:45.710Z,78.48
2024-01-11T00:14:13.941Z,78.32
2024-01-11T00:16:43.088Z,78.57
2024-01-11T00:19:11.373Z,78.94
2024-01-11T00:21:41.881Z,78.81
2024-01-11T00:24:10.475Z,79.04
2024-01-11T00:26:38.755Z,78.76
2024-01-11T00:29:07.053Z,78.86
2024-01-11T00:31:35.297Z,79.05
2024-01-11T00:34:03.673Z,78.98
2024-01-11T00:36:32.051Z,78.43
2024-01-11T00:39:00.529Z,78.65
2024-01-11T00:41:28.980Z,78.75
2024-01-11T00:43:57.297Z,79.06
2024-01-11T00:46:25.565Z,78.87
2024-01-11T00:48:56.574Z,78.74
2024-01-11T00:51:25.182Z,78.84
2024-01-11T00:53:53.317Z,78.92
2024-01-11T00:56:22.526Z,78.70
2024-01-11T00:58:50.726Z,78.53
2024-01-11T01:01:19.015Z,78.51
2024-01-11T01:03:47.179Z,78.83
2024-01-11T01:06:15.494Z,78.99
2024-01-11T01:08:43.677Z,79.18
2024-01-11T01:11:11.830Z,79.40
2024-01-11T01:13:40.166Z,79.36
2024-01-11T01:16:08.344Z,79.10
2024-01-11T01:18:36.570Z,79.19
2024-01-11T01:21:08.288Z,78.96
2024-01-11T01:23:36.503Z,79.17
2024-01-11T01:26:07.485Z,79.22
2024-01-11T01:28:35.967Z,79.41
2024-01-11T01:31:04.365Z,79.28
2024-01-11T01:33:32.855Z,78.77
2024-01-11T01:36:00.996Z,78.47
2024-01-11T01:38:29.124Z,78.72
2024-01-11T01:40:57.457Z,78.77
2024-01-11T01:43:25.511Z,79.06
2024-01-11T01:45:54.202Z,79.05
2024-01-11T01:48:22.836Z,78.91
2024-01-11T01:50:54.389Z,79.05
2024-01-11T01:53:23.670Z,78.96
2024-01-11T01:55:52.966Z,78.55
2024-01-11T01:58:21.811Z,78.50
2024-01-11T02:00:52.597Z,78.44
2024-01-11T02:03:21.275Z,78.54
2024-01-11T02:05:49.943Z,78.42
2024-01-11T02:08:20.580Z,78.51
2024-01-11T02:10:49.128Z,78.88
2024-01-11T02:13:17.400Z,78.98
2024-01-11T02:15:46.975Z,79.20
2024-01-11T02:18:15.370Z,78.86
2024-01-11T02:20:43.684Z,79.00
2024-01-11T02:23:19.903Z,78.88
2024-01-11T02:25:48.104Z,79.16
2024-01-11T02:28:16.278Z,78.86
2024-01-11T02:30:44.508Z,79.03
2024-01-11T02:33:17.461Z,79.47
2024-01-11T02:35:48.028Z,79.17
2024-01-11T02:38:17.231Z,78.72
2024-01-11T02:40:46.044Z,78.75
2024-01-11T02:43:14.739Z,79.29
2024-01-11T02:45:42.793Z,80.29
2024-01-11T02:48:11.059Z,80.65
2024-01-11T02:50:39.488Z,80.26
2024-01-11T02:53:07.641Z,79.96
2024-01-11T02:55:35.791Z,79.80
2024-01-11T02:58:04.090Z,79.72
2024-01-11T03:00:32.182Z,80.02
2024-01-11T03:03:00.371Z,79.82
2024-01-11T03:05:29.009Z,80.02
2024-01-11T03:07:57.297Z,80.68
2024-01-11T03:10:25.348Z,80.76
2024-01-11T03:12:53.422Z,81.01
2024-01-11T03:15:21.485Z,80.95
2024-01-11T03:17:49.853Z,81.07
2024-01-11T03:20:21.659Z,80.86
2024-01-11T03:22:49.786Z,80.76
2024-01-11T03:25:17.854Z,80.43
2024-01-11T03:27:46.331Z,80.32
2024-01-11T03:30:14.818Z,80.37
2024-01-11T03:32:43.241Z,80.18
2024-01-11T03:35:11.659Z,80.37
2024-01-11T03:37:40.048Z,80.20
2024-01-11T03:40:08.638Z,79.90
2024-01-11T03:42:36.696Z,79.97
2024-01-11T03:45:06.056Z,79.67
2024-01-11T03:47:34.294Z,79.78
2024-01-11T03:50:03.390Z,79.88
2024-01-11T03:52:31.547Z,80.05
2024-01-11T03:54:59.712Z,80.20
2024-01-11T03:57:27.984Z,80.10
2024-01-11T03:59:56.064Z,79.86
2024-01-11T04:02:24.225Z,79.77
2024-01-11T04:04:52.711Z,79.80
2024-01-11T04:07:20.795Z,79.90
2024-01-11T04:09:48.875Z,80.20
2024-01-11T04:12:17.029Z,80.61
2024-01-11T04:14:45.276Z,81.05
2024-01-11T04:17:13.669Z,81.28
2024-01-11T04:19:41.955Z,81.59
2024-01-11T04:22:10.226Z,81.80
2024-01-11T04:24:38.294Z,82.26
2024-01-11T04:27:06.668Z,82.33
2024-01-11T04:29:34.871Z,82.67
2024-01-11T04:32:03.096Z,82.59
2024-01-11T04:34:32.612Z,83.09
2024-01-11T04:37:00.999Z,83.26
2024-01-11T04:39:29.172Z,83.24
2024-01-11T04:41:57.246Z,83.17
2024-01-11T04:44:27.885Z,83.28
2024-01-11T04:46:56.436Z,83.26
2024-01-11T04:49:25.004Z,83.51
2024-01-11T04:51:53.220Z,83.34
2024-01-11T04:54:21.382Z,83.69
2024-01-11T04:56:49.607Z,83.98
2024-01-11T04:59:17.871Z,84.42
2024-01-11T05:01:47.446Z,84.30
2024-01-11T05:04:15.605Z,84.44
2024-01-11T05:06:44.061Z,84.26
2024-01-11T05:09:12.269Z,84.05
2024-01-11T05:11:40.485Z,83.96
2024-01-11T05:14:08.777Z,83.78
2024-01-11T05:16:37.292Z,83.68
2024-01-11T05:19:05.471Z,83.68
2024-01-11T05:21:33.732Z,83.72
2024-01-11T05:24:02.736Z,83.35
2024-01-11T05:26:31.200Z,83.20
2024-01-11T05:28:59.962Z,83.07
2024-01-11T05:31:28.242Z,82.86
2024-01-11T05:33:56.642Z,82.61
2024-01-11T05:36:25.131Z,82.48
2024-01-11T05:38:53.196Z,82.36
2024-01-11T05:41:21.279Z,82.22
2024-01-11T05:43:49.441Z,82.19
2024-01-11T05:46:17.510Z,82.16
2024-01-11T05:48:45.811Z,82.23
2024-01-11T05:51:14.064Z,82.19
2024-01-11T05:53:42.245Z,82.03
2024-01-11T05:56:12.133Z,81.90
2024-01-11T05:58:41.400Z,81.40
2024-01-11T06:01:10.331Z,81.34
2024-01-11T06:03:39.916Z,81.36
2024-01-11T06:06:08.653Z,81.38
2024-01-11T06:08:36.944Z,81.34
2024-01-11T06:11:05.789Z,81.14
2024-01-11T06:13:34.276Z,81.32
2024-01-11T06:16:02.851Z,81.09
2024-01-11T06:18:32.036Z,81.04
2024-01-11T06:21:00.328Z,80.86
2024-01-11T06:23:28.966Z,80.99
2024-01-11T06:25:57.423Z,81.00
2024-01-11T06:28:25.562Z,80.80
2024-01-11T06:30:55.104Z,80.81
2024-01-11T06:33:23.505Z,80.51
2024-01-11T06:35:51.983Z,80.29
2024-01-11T06:38:20.220Z,80.06
2024-01-11T06:40:50.015Z,80.00
2024-01-11T06:43:18.040Z,80.13
2024-01-11T06:45:46.289Z,79.97
2024-01-11T06:48:14.587Z,79.80
2024-01-11T06:50:43.049Z,79.84
2024-01-11T06:53:11.300Z,79.58
2024-01-11T06:55:39.582Z,79.40
2024-01-11T06:58:07.937Z,79.15
2024-01-11T07:00:36.914Z,79.11
2024-01-11T07:03:05.085Z,78.95
2024-01-11T07:05:33.570Z,78.82
2024-01-11T07:08:01.779Z,78.64
2024-01-11T07:10:30.024Z,78.57
2024-01-11T07:12:58.145Z,78.36
2024-01-11T07:15:26.471Z,78.18
2024-01-11T07:17:54.991Z,78.12
2024-01-11T07:20:23.278Z,77.79
2024-01-11T07:22:51.513Z,77.47
2024-01-11T07:25:19.567Z,77.44
2024-01-11T07:27:47.599Z,77.21
2024-01-11T07:30:16.411Z,76.92
2024-01-11T07:32:44.893Z,76.89
2024-01-11T07:35:17.658Z,76.79
2024-01-11T07:37:47.301Z,76.65
2024-01-11T07:40:15.620Z,76.47
2024-01-11T07:42:44.447Z,76.45
2024-01-11T07:45:12.677Z,76.40
2024-01-11T07:47:41.481Z,76.20
2024-01-11T07:50:16.684Z,76.06
2024-01-11T07:52:44.921Z,76.11
2024-01-11T07:55:14.263Z,76.06
2024-01-11T07:57:42.850Z,76.06
2024-01-11T08:00:11.396Z,75.95
2024-01-11T08:02:42.376Z,75.82
2024-01-11T08:05:10.994Z,75.76
2024-01-11T08:07:39.701Z,75.68
2024-01-11T08:10:08.486Z,75.59
2024-01-11T08:12:37.628Z,75.45
2024-01-11T08:15:06.549Z,75.45
2024-01-11T08:17:34.711Z,75.27
2024-01-11T08:20:03.045Z,75.33
2024-01-11T08:22:35.071Z,75.38
2024-01-11T08:25:05.870Z,75.10
2024-01-11T08:27:34.901Z,74.99
2024-01-11T08:30:03.683Z,74.86
2024-01-11T08:32:32.764Z,74.78
2024-01-11T08:35:01.441Z,74.73
2024-01-11T08:37:29.764Z,74.77
2024-01-11T08:39:57.807Z,75.00
2024-01-11T08:42:26.003Z,74.73
2024-01-11T08:44:54.263Z,74.62
2024-01-11T08:47:22.615Z,74.62
2024-01-11T08:49:51.435Z,74.50
2024-01-11T08:52:19.428Z,74.62
2024-01-11T08:54:47.669Z,74.64
2024-01-11T08:57:16.372Z,74.70
2024-01-11T08:59:44.716Z,74.63
2024-01-11T09:02:16.750Z,74.69
2024-01-11T09:04:48.946Z,74.67
2024-01-11T09:07:17.543Z,74.78
2024-01-11T09:09:53.664Z,74.79
2024-01-11T09:12:25.174Z,74.72
2024-01-11T09:14:53.615Z,74.72
2024-01-11T09:17:23.206Z,74.70
2024-01-11T09:19:52.226Z,74.75
2024-01-11T09:22:20.510Z,74.49
2024-01-11T09:24:48.686Z,74.31
2024-01-11T09:27:17.051Z,74.28
2024-01-11T09:29:46.102Z,74.08
2024-01-11T09:32:14.601Z,74.05
2024-01-11T09:34:42.988Z,74.08
2024-01-11T09:37:11.178Z,73.98
2024-01-11T09:39:39.616Z,73.74
2024-01-11T09:42:08.752Z,73.62
2024-01-11T09:44:41.006Z,73.63
2024-01-11T09:47:11.734Z,73.47
2024-01-11T09:49:43.940Z,73.35
2024-01-11T09:52:14.396Z,73.35
2024-01-11T09:54:42.925Z,73.44
2024-01-11T09:57:11.314Z,73.26
2024-01-11T09:59:39.630Z,73.44
2024-01-11T10:02:11.096Z,73.29
2024-01-11T10:04:39.302Z,73.25
2024-01-11T10:07:08.189Z,73.40
2024-01-11T10:09:36.879Z,73.36
2024-01-11T10:12:06.317Z,73.56
2024-01-11T10:14:35.039Z,73.58
2024-01-11T10:17:03.279Z,73.69
2024-01-11T10:19:31.694Z,73.60
2024-01-11T10:22:00.708Z,73.53
2024-01-11T10:24:29.768Z,73.66
2024-01-11T10:26:59.706Z,73.84
2024-01-11T10:29:32.024Z,73.89
2024-01-11T10:32:00.696Z,74.11
2024-01-11T10:34:29.080Z,74.14
2024-01-11T10:36:58.147Z,74.29
2024-01-11T10:39:27.564Z,74.51
2024-01-11T10:42:07.094Z,74.49
2024-01-11T10:44:37.394Z,74.51
2024-01-11T10:47:09.112Z,73.89
2024-01-11T10:49:41.342Z,74.02
2024-01-11T10:52:09.904Z,73.98
2024-01-11T10:54:38.422Z,74.17
2024-01-11T10:57:06.965Z,74.40
2024-01-11T10:59:36.806Z,74.61
2024-01-11T11:02:07.857Z,74.68
2024-01-11T11:04:37.325Z,74.85
2024-01-11T11:07:08.976Z,74.92
2024-01-11T11:09:38.638Z,74.90
2024-01-11T11:12:07.366Z,75.05
2024-01-11T11:14:36.625Z,75.22
2024-01-11T11:17:05.774Z,75.29
2024-01-11T11:19:34.085Z,75.31
2024-01-11T11:22:06.251Z,75.50
2024-01-11T11:24:37.576Z,75.21
2024-01-11T11:27:06.851Z,75.20
2024-01-11T11:29:35.090Z,75.23
2024-01-11T11:32:04.612Z,75.03
2024-01-11T11:34:46.587Z,74.93
2024-01-11T11:37:24.451Z,74.99
2024-01-11T11:39:53.114Z,75.13
2024-01-11T11:42:26.000Z,75.48
2024-01-11T11:44:54.296Z,75.67
2024-01-11T11:47:24.575Z,75.54
2024-01-11T11:50:04.665Z,75.50
2024-01-11T11:52:37.979Z,75.62
2024-01-11T11:55:10.000Z,76.00
2024-01-11T11:57:38.165Z,76.18
2024-01-11T12:00:07.861Z,76.17
2024-01-11T12:02:43.132Z,76.39
2024-01-11T12:05:11.598Z,76.57
2024-01-11T12:07:39.978Z,76.85
2024-01-11T12:10:08.240Z,77.10
2024-01-11T12:12:38.975Z,76.91
2024-01-11T12:15:07.871Z,76.80
2024-01-11T12:17:36.146Z,76.89
2024-01-11T12:20:05.052Z,76.98
2024-01-11T12:22:33.405Z,77.17
2024-01-11T12:25:02.619Z,77.27
2024-01-11T12:27:31.855Z,77.60
2024-01-11T12:30:00.236Z,77.35
2024-01-11T12:32:31.222Z,77.36
2024-01-11T12:34:59.663Z,77.51
2024-01-11T12:37:28.183Z,77.78
2024-01-11T12:39:59.885Z,77.83
2024-01-11T12:42:30.873Z,78.02
2024-01-11T12:44:59.774Z,78.28
2024-01-11T12:47:28.961Z,78.40
2024-01-11T12:49:57.658Z,78.46
2024-01-11T12:52:28.758Z,78.48
2024-01-11T12:54:58.158Z,78.67
2024-01-11T12:57:26.520Z,78.74
2024-01-11T12:59:54.942Z,79.00
2024-01-11T13:02:23.066Z,78.95
2024-01-11T13:04:52.112Z,79.18
2024-01-11T13:07:20.483Z,79.20
2024-01-11T13:09:48.702Z,79.52
2024-01-11T13:12:16.821Z,79.84
2024-01-11T13:14:45.077Z,80.12
2024-01-11T13:17:13.505Z,80.19
2024-01-11T13:19:41.759Z,80.40
2024-01-11T13:22:10.236Z,80.63
2024-01-11T13:24:38.307Z,80.85
2024-01-11T13:27:06.657Z,81.32
2024-01-11T13:29:35.178Z,81.68
2024-01-11T13:32:05.762Z,81.77
2024-01-11T13:34:34.061Z,81.87
2024-01-11T13:37:02.442Z,81.91
2024-01-11T13:39:30.611Z,81.85
2024-01-11T13:41:59.617Z,82.23
2024-01-11T13:44:28.067Z,82.51
2024-01-11T13:46:56.466Z,82.54
2024-01-11T13:49:26.580Z,82.69
2024-01-11T13:52:00.914Z,82.99
2024-01-11T13:54:30.335Z,83.20
2024-01-11T13:56:58.483Z,83.51
2024-01-11T13:59:27.402Z,83.72
2024-01-11T14:01:55.639Z,83.92
2024-01-11T14:04:25.180Z,84.06
2024-01-11T14:06:54.012Z,84.21
2024-01-11T14:09:23.633Z,84.40
2024-01-11T14:11:51.839Z,84.44
2024-01-11T14:14:22.032Z,84.62
2024-01-11T14:16:50.408Z,84.69
2024-01-11T14:19:18.770Z,84.73
2024-01-11T14:21:47.081Z,85.02
2024-01-11T14:24:18.207Z,85.20
2024-01-11T14:26:51.490Z,85.51
2024-01-11T14:29:19.591Z,85.79
2024-01-11T14:31:47.839Z,86.09
2024-01-11T14:34:16.025Z,86.39
2024-01-11T14:36:44.187Z,86.57
2024-01-11T14:39:12.373Z,86.90
2024-01-11T14:41:40.479Z,87.16
2024-01-11T14:44:09.063Z,87.24
2024-01-11T14:46:37.207Z,87.43
2024-01-11T14:49:05.911Z,87.66
2024-01-11T14:51:35.261Z,87.75
2024-01-11T14:54:05.096Z,87.98
2024-01-11T14:56:33.532Z,88.26
2024-01-11T14:59:03.329Z,88.32
2024-01-11T15:01:32.302Z,88.46
2024-01-11T15:04:00.682Z,88.72
2024-01-11T15:06:29.213Z,88.72
2024-01-11T15:08:57.848Z,88.84
2024-01-11T15:11:27.060Z,88.99
2024-01-11T15:13:55.271Z,89.15
2024-01-11T15:16:23.957Z,89.19
2024-01-11T15:18:52.260Z,89.25
2024-01-11T15:21:20.396Z,89.25
2024-01-11T15:23:48.597Z,89.41
2024-01-11T15:26:16.971Z,89.70
2024-01-11T15:28:45.143Z,89.78
2024-01-11T15:31:13.256Z,89.74
2024-01-11T15:33:41.707Z,89.79
2024-01-11T15:36:11.077Z,89.75
2024-01-11T15:38:39.418Z,89.90
2024-01-11T15:41:07.664Z,89.97
2024-01-11T15:43:37.059Z,90.19
2024-01-11T15:46:05.914Z,90.33
2024-01-11T15:48:34.251Z,90.37
2024-01-11T15:51:05.246Z,90.55
2024-01-11T15:53:33.652Z,90.61
2024-01-11T15:56:02.389Z,90.62
2024-01-11T15:58:30.463Z,90.62
2024-01-11T16:00:58.556Z,90.84
2024-01-11T16:03:26.711Z,90.89
2024-01-11T16:05:55.408Z,91.06
2024-01-11T16:08:23.695Z,91.18
2024-01-11T16:10:52.054Z,91.31
2024-01-11T16:13:20.225Z,91.39
2024-01-11T16:15:49.415Z,91.42
2024-01-11T16:18:19.167Z,91.71
2024-01-11T16:20:47.645Z,91.80
2024-01-11T16:23:16.009Z,91.96
2024-01-11T16:25:44.151Z,92.05
2024-01-11T16:28:12.219Z,92.08
2024-01-11T16:30:40.526Z,92.10
2024-01-11T16:33:10.311Z,92.12
2024-01-11T16:35:45.140Z,92.31
2024-01-11T16:38:20.620Z,92.54
2024-01-11T16:40:49.369Z,92.48
2024-01-11T16:43:17.740Z,92.41
2024-01-11T16:45:45.916Z,92.51
2024-01-11T16:48:18.618Z,92.50
2024-01-11T16:50:48.617Z,92.61
2024-01-11T16:53:17.111Z,92.67
2024-01-11T16:55:45.886Z,92.56
2024-01-11T16:58:14.264Z,92.67
2024-01-11T17:00:43.297Z,92.67
2024-01-11T17:03:11.734Z,92.68
2024-01-11T17:05:40.225Z,92.83
2024-01-11T17:08:08.615Z,92.95
2024-01-11T17:10:39.062Z,92.87
2024-01-11T17:13:07.483Z,92.88
2024-01-11T17:15:36.378Z,92.93
2024-01-11T17:18:05.113Z,92.85
2024-01-11T17:20:33.249Z,92.93
2024-01-11T17:23:01.542Z,93.25
2024-01-11T17:25:29.791Z,93.26
2024-01-11T17:27:57.957Z,93.32
2024-01-11T17:30:26.271Z,93.31
2024-01-11T17:32:55.827Z,93.34
2024-01-11T17:35:24.975Z,93.28
2024-01-11T17:37:53.209Z,93.53
2024-01-11T17:40:21.297Z,93.60
2024-01-11T17:42:49.553Z,93.51
2024-01-11T17:45:17.823Z,93.58
2024-01-11T17:47:46.420Z,93.62
2024-01-11T17:50:15.143Z,93.67
2024-01-11T17:52:45.970Z,93.73
2024-01-11T17:55:15.327Z,93.80
2024-01-11T17:57:43.710Z,94.00
2024-01-11T18:00:13.971Z,94.03
2024-01-11T18:02:42.194Z,94.04
2024-01-11T18:05:10.885Z,94.03
2024-01-11T18:07:39.274Z,94.02
2024-01-11T18:10:08.147Z,94.03
2024-01-11T18:12:36.220Z,94.11
2024-01-11T18:15:04.953Z,94.12
2024-01-11T18:17:33.271Z,94.22
2024-01-11T18:20:01.654Z,94.02
2024-01-11T18:22:31.612Z,94.10
2024-01-11T18:25:01.083Z,94.04
2024-01-11T18:27:29.456Z,94.00
2024-01-11T18:29:58.442Z,93.96
2024-01-11T18:32:26.800Z,94.20
2024-01-11T18:34:57.128Z,94.27
2024-01-11T18:37:27.163Z,94.38
2024-01-11T18:39:55.228Z,94.45
2024-01-11T18:42:25.094Z,94.30
2024-01-11T18:44:54.904Z,94.38
2024-01-11T18:47:23.196Z,94.40
2024-01-11T18:49:51.399Z,94.70
2024-01-11T18:52:19.679Z,94.57
2024-01-11T18:54:54.197Z,94.65
2024-01-11T18:57:26.484Z,94.64
2024-01-11T18:59:56.458Z,94.69
2024-01-11T19:02:24.772Z,94.76
2024-01-11T19:04:52.965Z,94.79
2024-01-11T19:07:21.540Z,94.75
2024-01-11T19:09:49.703Z,94.77
2024-01-11T19:12:17.778Z,94.77
2024-01-11T19:14:46.850Z,94.96
2024-01-11T19:17:15.660Z,94.97
2024-01-11T19:19:43.926Z,94.98
2024-01-11T19:22:12.290Z,94.98
2024-01-11T19:24:40.563Z,95.11
2024-01-11T19:27:08.842Z,95.16
2024-01-11T19:29:36.933Z,95.32
2024-01-11T19:32:05.508Z,95.34
2024-01-11T19:34:33.703Z,95.45
2024-01-11T19:37:02.768Z,95.54
2024-01-11T19:39:30.927Z,95.79
2024-01-11T19:42:00.300Z,95.85
2024-01-11T19:44:28.873Z,95.87
2024-01-11T19:46:57.292Z,96.09
2024-01-11T19:49:25.587Z,96.13
2024-01-11T19:51:53.851Z,96.36
2024-01-11T19:54:22.120Z,96.46
2024-01-11T19:56:50.229Z,96.62
2024-01-11T19:59:19.438Z,96.71
2024-01-11T20:01:47.572Z,96.56
2024-01-11T20:04:15.842Z,96.64
2024-01-11T20:06:44.748Z,96.64
2024-01-11T20:09:16.694Z,96.57
2024-01-11T20:11:45.330Z,96.68
2024-01-11T20:14:13.875Z,96.81
2024-01-11T20:16:42.221Z,96.90
2024-01-11T20:19:10.459Z,96.99
2024-01-11T20:21:38.676Z,97.03
2024-01-11T20:24:07.249Z,97.10
2024-01-11T20:26:35.589Z,97.13
2024-01-11T20:29:03.797Z,97.24
2024-01-11T20:31:32.912Z,97.27
2024-01-11T20:34:04.096Z,97.20
2024-01-11T20:36:32.458Z,97.41
2024-01-11T20:39:00.834Z,97.50
2024-01-11T20:41:29.116Z,97.54
2024-01-11T20:43:57.437Z,97.74
2024-01-11T20:46:25.812Z,97.67
2024-01-11T20:48:54.108Z,97.94
2024-01-11T20:51:22.279Z,97.97
2024-01-11T20:53:51.661Z,98.08
2024-01-11T20:56:19.873Z,98.06
2024-01-11T20:58:48.222Z,98.40
2024-01-11T21:01:16.706Z,98.21
2024-01-11T21:03:45.140Z,98.17
2024-01-11T21:06:14.625Z,98.34
2024-01-11T21:08:43.228Z,98.23
2024-01-11T21:11:11.512Z,98.16
2024-01-11T21:13:39.758Z,98.21
2024-01-11T21:16:07.900Z,98.38
2024-01-11T21:18:36.340Z,98.37
2024-01-11T21:21:04.859Z,98.45
2024-01-11T21:23:33.356Z,98.46
2024-01-11T21:26:01.596Z,98.47
2024-01-11T21:28:30.085Z,98.48
2024-01-11T21:30:58.412Z,98.58
2024-01-11T21:33:26.725Z,98.68
2024-01-11T21:35:54.978Z,98.67
2024-01-11T21:38:23.195Z,98.69
2024-01-11T21:40:53.022Z,98.78
2024-01-11T21:43:21.174Z,98.89
2024-01-11T21:45:49.225Z,98.85
2024-01-11T21:48:17.637Z,98.94
2024-01-11T21:50:46.011Z,98.89
2024-01-11T21:53:14.679Z,98.81
2024-01-11T21:55:42.949Z,98.89
2024-01-11T21:58:11.114Z,98.97
2024-01-11T22:00:39.322Z,98.98
2024-01-11T22:03:08.411Z,99.13
2024-01-11T22:05:36.870Z,99.19
2024-01-11T22:08:05.485Z,99.33
2024-01-11T22:10:33.523Z,99.12
2024-01-11T22:13:01.688Z,99.30
2024-01-11T22:15:30.166Z,99.33
2024-01-11T22:17:58.619Z,99.28
2024-01-11T22:20:27.195Z,99.22
2024-01-11T22:22:55.912Z,99.34
2024-01-11T22:25:24.397Z,99.16
2024-01-11T22:27:53.195Z,99.22
2024-01-11T22:30:21.693Z,99.16
2024-01-11T22:32:50.135Z,99.13
2024-01-11T22:35:19.600Z,99.29
2024-01-11T22:37:47.921Z,99.41
2024-01-11T22:40:16.096Z,99.61
2024-01-11T22:42:44.281Z,99.51
2024-01-11T22:45:12.438Z,99.50
2024-01-11T22:47:41.178Z,99.54
2024-01-11T22:50:10.103Z,99.49
2024-01-11T22:52:40.052Z,99.68
2024-01-11T22:55:08.302Z,99.63
2024-01-11T22:57:36.465Z,99.63
2024-01-11T23:00:22.035Z,99.55
2024-01-11T23:02:51.820Z,99.75
2024-01-11T23:05:20.926Z,99.62
2024-01-11T23:07:49.434Z,99.71
2024-01-11T23:10:18.364Z,99.64
2024-01-11T23:12:46.608Z,99.73
2024-01-11T23:15:14.776Z,99.73
2024-01-11T23:17:43.253Z,99.66
2024-01-11T23:20:12.296Z,99.81
2024-01-11T23:22:40.420Z,99.84
2024-01-11T23:25:09.229Z,99.77
2024-01-11T23:27:37.708Z,99.91
2024-01-11T23:30:06.594Z,99.85
2024-01-11T23:32:34.825Z,99.83
2024-01-11T23:35:03.238Z,99.95
2024-01-11T23:37:31.504Z,99.91
2024-01-11T23:39:59.694Z,99.88
2024-01-11T23:42:27.856Z,99.85
2024-01-11T23:44:56.234Z,99.72
2024-01-11T23:47:24.417Z,99.75
2024-01-11T23:49:52.723Z,99.90
2024-01-11T23:52:20.950Z,99.96
2024-01-11T23:54:49.024Z,99.89
2024-01-11T23:57:17.184Z,99.90
2024-01-11T23:59:46.099Z,99.98
